Time;durP1;ratioP1;P1;durP2;ratioP2;P2;SDS_P1;SDS_P2;PMS_P1;PMS_P2;Temp;Humidity;BMP_temperature;BMP_pressure;BME280_temperature;BME280_humidity;BME280_pressure;Samples;Min_cycle;Max_cycle;Signal;HPM_P1;HPM_P2
2022/12/22 03:27:23;;;;;;;9.93;3.60;;;;;;;22.47;30.32;103120.97;20835732;28;20029;-64
2022/12/22 03:37:24;;;;;;;10.77;3.22;;;;;;;22.44;29.87;103104.72;20834029;28;20049;-64
2022/12/22 03:47:26;;;;;;;8.35;3.35;;;;;;;22.43;30.00;103125.34;20833016;28;20045;-66
2022/12/22 03:57:27;;;;;;;8.63;3.28;;;;;;;22.41;30.29;103121.94;20833391;28;20046;-64
2022/12/22 04:07:29;;;;;;;5.75;3.00;;;;;;;22.42;29.85;103130.06;20831778;28;20103;-63
2022/12/22 04:17:30;;;;;;;5.78;3.25;;;;;;;22.39;29.94;103135.28;20831774;28;20045;-64
2022/12/22 04:27:32;;;;;;;8.77;3.33;;;;;;;22.36;30.32;103146.88;20830846;28;20057;-62
2022/12/22 04:37:33;;;;;;;8.45;3.17;;;;;;;22.28;30.03;103146.16;20829795;28;20042;-64
2022/12/22 04:47:37;;;;;;;6.63;3.47;;;;;;;22.27;30.54;103144.47;20828879;28;20049;-64
2022/12/22 04:57:39;;;;;;;5.63;2.95;;;;;;;22.24;30.28;103138.50;20828669;28;20045;-64
2022/12/22 05:07:40;;;;;;;6.43;3.03;;;;;;;22.21;30.33;103111.94;20828220;28;20092;-63
2022/12/22 05:17:45;;;;;;;5.97;3.10;;;;;;;22.18;30.10;103106.84;20827737;28;20111;-64
2022/12/22 05:27:48;;;;;;;6.70;3.13;;;;;;;22.20;30.52;103098.22;20827056;28;20084;-66
2022/12/22 05:37:49;;;;;;;4.70;3.13;;;;;;;22.25;30.32;103102.00;20807434;28;20038;-65
2022/12/22 05:47:54;;;;;;;4.85;2.80;;;;;;;22.28;30.33;103090.38;20782144;28;20050;-65
2022/12/22 05:57:55;;;;;;;6.85;3.05;;;;;;;22.31;29.97;103108.56;20825808;28;20080;-65
2022/12/22 06:07:56;;;;;;;5.32;2.60;;;;;;;22.35;30.06;103106.16;20813008;28;20042;-64
2022/12/22 06:17:59;;;;;;;4.82;2.75;;;;;;;22.37;30.10;103090.03;20775371;28;20042;-64
2022/12/22 06:28:00;;;;;;;3.80;2.50;;;;;;;22.32;29.87;103044.19;20865089;28;20041;-64
2022/12/22 06:38:01;;;;;;;4.60;2.83;;;;;;;22.36;30.37;103058.50;20837768;28;20042;-64
2022/12/22 06:48:07;;;;;;;3.85;2.60;;;;;;;22.35;29.81;103036.41;20809286;28;20042;-63
2022/12/22 06:58:09;;;;;;;6.35;2.60;;;;;;;22.34;29.75;103038.34;20776693;28;20044;-64
2022/12/22 07:08:10;;;;;;;4.28;2.65;;;;;;;22.33;29.92;103023.56;20789859;28;20045;-64
2022/12/22 07:18:14;;;;;;;5.10;2.40;;;;;;;22.29;30.04;103008.41;20831085;28;20099;-64
2022/12/22 07:28:16;;;;;;;7.57;2.53;;;;;;;22.26;30.06;103006.06;20827418;28;20056;-63
2022/12/22 07:38:17;;;;;;;4.93;2.55;;;;;;;22.27;29.79;102991.06;20810882;28;20034;-63
2022/12/22 07:58:41;;;;;;;6.05;2.88;;;;;;;22.03;30.00;102948.31;20834445;28;20030;-63
2022/12/22 08:08:42;;;;;;;4.45;2.22;;;;;;;22.13;30.27;102947.78;20831769;28;20345;-63
2022/12/22 08:18:46;;;;;;;3.88;2.13;;;;;;;22.08;30.22;102930.84;20830822;28;20041;-63
2022/12/22 08:29:09;;;;;;;4.32;2.33;;;;;;;22.03;30.32;102914.84;20825818;28;20548;-63
2022/12/22 08:39:12;;;;;;;2.72;2.20;;;;;;;21.67;30.42;102854.59;20810786;28;20054;-63
2022/12/22 08:49:14;;;;;;;4.35;2.70;;;;;;;22.07;30.23;102931.94;20828660;28;20040;-63
2022/12/22 08:59:15;;;;;;;6.68;2.40;;;;;;;22.13;30.36;102944.97;20790173;28;20064;-63
2022/12/22 09:09:19;;;;;;;4.05;2.38;;;;;;;22.16;30.13;102902.66;20828290;28;20096;-64
2022/12/22 09:19:21;;;;;;;3.78;2.95;;;;;;;22.18;30.46;102910.78;20825429;28;20396;-64
2022/12/22 09:29:25;;;;;;;2.67;2.25;;;;;;;22.06;30.51;102874.50;20818386;28;20551;-64
2022/12/22 09:39:29;;;;;;;4.25;2.30;;;;;;;22.20;30.07;102881.56;20809516;28;20037;-64
2022/12/22 09:49:30;;;;;;;3.50;2.75;;;;;;;22.25;30.32;102862.16;20782077;28;20038;-64
2022/12/22 09:59:32;;;;;;;5.55;2.45;;;;;;;22.27;29.89;102876.72;20819555;28;20140;-64
2022/12/22 10:09:36;;;;;;;4.80;2.80;;;;;;;22.24;29.78;102871.63;20839767;28;20038;-64
2022/12/22 10:19:40;;;;;;;3.22;2.30;;;;;;;22.20;30.01;102850.88;20838296;28;20041;-64
2022/12/22 10:29:41;;;;;;;3.70;2.28;;;;;;;22.20;30.15;102839.72;20832389;28;20449;-64
2022/12/22 10:39:45;;;;;;;4.40;2.45;;;;;;;22.19;29.88;102851.97;20834771;28;20099;-63
2022/12/22 10:49:50;;;;;;;2.63;2.00;;;;;;;22.20;29.90;102831.38;20836489;28;20037;-64
2022/12/22 11:00:00;;;;;;;2.70;2.13;;;;;;;22.20;30.16;102814.63;20834394;28;20042;-65
2022/12/22 11:10:02;;;;;;;4.05;2.45;;;;;;;22.17;30.01;102829.06;20801698;28;20050;-63
2022/12/22 11:20:03;;;;;;;3.70;2.58;;;;;;;22.14;29.96;102837.09;20838962;28;20136;-64
2022/12/22 11:30:20;;;;;;;3.20;1.95;;;;;;;22.07;30.50;102809.28;20787556;28;20048;-63
2022/12/22 11:40:42;;;;;;;3.78;2.00;;;;;;;21.62;30.40;102700.38;20836008;28;20037;-64
2022/12/22 11:50:54;;;;;;;2.72;2.30;;;;;;;22.03;30.45;102777.41;20841893;28;20045;-63
2022/12/22 12:01:19;;;;;;;3.22;2.10;;;;;;;21.96;30.60;102771.13;20833067;28;20488;-64
2022/12/22 12:11:35;;;;;;;4.60;2.10;;;;;;;22.07;30.45;102748.78;20824401;28;20104;-63
2022/12/22 12:21:48;;;;;;;3.95;2.20;;;;;;;22.09;30.58;102734.63;20799857;28;20041;-64
2022/12/22 12:32:07;;;;;;;2.83;2.30;;;;;;;22.15;30.44;102747.59;20781944;28;20034;-65
2022/12/22 12:42:36;;;;;;;3.33;2.15;;;;;;;22.14;30.48;102731.13;20774672;28;20049;-64
2022/12/22 12:52:42;;;;;;;2.20;1.83;;;;;;;22.18;30.26;102733.19;20748636;28;20046;-65
2022/12/22 13:02:56;;;;;;;2.45;1.80;;;;;;;21.99;30.27;102673.06;20827902;28;20045;-65
2022/12/22 13:12:57;;;;;;;2.72;1.70;;;;;;;22.21;30.07;102660.16;20827958;28;20476;-65
2022/12/22 13:23:01;;;;;;;3.35;2.28;;;;;;;22.25;29.92;102680.03;20788438;28;20045;-64
2022/12/22 13:33:11;;;;;;;3.70;2.20;;;;;;;22.22;30.22;102656.31;20828166;28;20036;-64
2022/12/22 13:43:15;;;;;;;2.72;2.10;;;;;;;22.23;30.03;102646.84;20827151;28;20193;-64
2022/12/22 13:53:39;;;;;;;4.68;2.28;;;;;;;22.17;30.27;102608.78;20835960;28;20131;-64
2022/12/22 14:03:56;;;;;;;3.22;1.90;;;;;;;22.05;30.08;102561.41;20826482;28;20125;-62
2022/12/22 14:13:57;;;;;;;2.72;2.35;;;;;;;22.23;30.04;102577.13;20812147;28;20369;-62
2022/12/22 14:23:58;;;;;;;3.08;2.03;;;;;;;22.15;30.12;102566.38;20820347;28;20053;-62
2022/12/22 14:34:04;;;;;;;3.83;1.90;;;;;;;22.19;30.05;102522.94;20837003;28;20420;-62
2022/12/22 14:44:19;;;;;;;4.45;2.22;;;;;;;21.91;30.50;102475.56;20835142;28;20115;-63
2022/12/22 14:54:26;;;;;;;2.95;2.00;;;;;;;22.11;30.56;102517.75;20825255;28;20103;-63
2022/12/22 15:04:28;;;;;;;3.45;2.20;;;;;;;22.09;30.52;102539.47;20805555;28;20127;-62
2022/12/22 15:14:33;;;;;;;6.00;2.25;;;;;;;22.06;30.48;102557.53;20831171;28;20550;-62
2022/12/22 15:24:34;;;;;;;8.23;2.35;;;;;;;22.01;30.47;102537.06;20810630;28;20049;-63
2022/12/22 15:34:36;;;;;;;8.05;2.70;;;;;;;22.07;30.75;102513.75;20786987;28;20057;-62
2022/12/22 15:44:37;;;;;;;17.20;3.83;;;;;;;22.15;31.03;102516.19;20823353;28;20045;-63
2022/12/22 15:54:38;;;;;;;74.38;7.30;;;;;;;22.17;30.97;102463.78;20832260;28;20041;-64
2022/12/22 16:04:40;;;;;;;162.30;13.80;;;;;;;22.14;31.33;102438.38;20807681;28;20058;-63
2022/12/22 16:14:45;;;;;;;132.73;13.13;;;;;;;22.26;31.56;102426.00;20786014;28;20366;-64
2022/12/22 16:24:48;;;;;;;157.00;15.10;;;;;;;22.30;31.77;102379.78;20812805;28;20053;-63
2022/12/22 16:34:50;;;;;;;189.07;17.17;;;;;;;22.37;32.66;102373.22;20811022;28;20045;-64
2022/12/22 16:44:52;;;;;;;149.93;17.52;;;;;;;22.31;32.88;102324.84;20822840;28;20049;-64
2022/12/22 16:54:53;;;;;;;120.85;24.55;;;;;;;22.40;33.44;102301.00;20820519;28;20038;-64
2022/12/22 17:04:59;;;;;;;136.68;31.52;;;;;;;22.43;32.92;102277.34;20761168;28;20497;-65
2022/12/22 17:15:00;;;;;;;134.77;32.22;;;;;;;22.43;32.54;102243.88;20805352;28;20053;-65
2022/12/22 17:25:04;;;;;;;145.98;32.55;;;;;;;22.46;33.63;102215.47;20827231;28;20053;-65
2022/12/22 17:35:08;;;;;;;156.23;33.53;;;;;;;22.50;33.49;102183.16;20745983;28;20038;-68
2022/12/22 17:45:14;;;;;;;137.18;31.70;;;;;;;22.47;34.02;102175.31;20800032;28;20622;-65
2022/12/22 17:55:27;;;;;;;133.98;29.75;;;;;;;22.52;34.52;102169.78;20824285;28;20034;-66
2022/12/22 18:05:36;;;;;;;164.63;33.25;;;;;;;22.56;34.46;102129.09;20794532;28;20095;-66
2022/12/22 18:15:38;;;;;;;181.45;33.15;;;;;;;22.57;34.98;102100.09;20765599;28;20485;-65
2022/12/22 18:25:39;;;;;;;124.75;28.48;;;;;;;22.54;34.78;102112.63;20816632;28;20061;-66
2022/12/22 18:35:42;;;;;;;124.65;29.52;;;;;;;22.55;35.13;102088.38;20837907;28;20041;-66
2022/12/22 18:45:43;;;;;;;126.32;29.40;;;;;;;22.33;35.00;102032.66;20837549;28;20037;-65
2022/12/22 18:55:45;;;;;;;104.90;25.63;;;;;;;22.50;34.91;102050.09;20814443;28;20045;-66
2022/12/22 19:05:52;;;;;;;114.10;24.52;;;;;;;22.50;34.98;102021.38;20829273;28;20119;-64
2022/12/22 19:15:58;;;;;;;96.80;20.90;;;;;;;22.47;34.44;102005.16;20765394;28;20045;-62
2022/12/22 19:26:03;;;;;;;78.35;18.30;;;;;;;22.50;34.25;101943.28;20828648;28;20484;-62
2022/12/22 19:36:04;;;;;;;82.53;16.55;;;;;;;22.52;33.86;101911.19;20832781;28;20033;-62
2022/12/22 19:46:06;;;;;;;131.32;18.52;;;;;;;22.59;34.22;101874.72;20789520;28;20050;-63
2022/12/22 19:56:22;;;;;;;132.73;19.52;;;;;;;22.59;33.90;101852.41;20831885;28;20061;-62
2022/12/22 20:06:23;;;;;;;118.72;17.77;;;;;;;22.65;34.19;101834.56;20828804;28;20037;-62
2022/12/22 20:16:24;;;;;;;113.47;16.17;;;;;;;22.64;33.79;101835.69;20832090;28;20497;-63
2022/12/22 20:26:26;;;;;;;119.55;18.17;;;;;;;22.72;33.80;101829.56;20788069;28;20053;-62
2022/12/22 20:36:30;;;;;;;100.30;17.13;;;;;;;22.74;33.89;101819.00;20828371;28;20038;-63
2022/12/22 20:46:35;;;;;;;107.75;17.08;;;;;;;22.76;34.21;101777.69;20810447;28;20402;-62
2022/12/22 20:56:38;;;;;;;112.50;15.20;;;;;;;22.78;33.87;101743.94;20825648;28;20052;-62
2022/12/22 21:06:50;;;;;;;98.10;16.00;;;;;;;22.80;33.91;101686.75;20824807;28;20115;-63
2022/12/22 21:16:52;;;;;;;124.20;14.63;;;;;;;22.81;34.45;101627.00;20778658;28;20045;-62
2022/12/22 21:26:56;;;;;;;168.98;18.00;;;;;;;22.84;34.55;101587.41;20820302;28;20311;-63
2022/12/22 21:37:00;;;;;;;133.68;16.85;;;;;;;22.62;34.99;101549.72;20810558;28;20050;-65
2022/12/22 21:47:05;;;;;;;94.93;12.82;;;;;;;22.69;35.07;101541.94;20822681;28;20103;-62
2022/12/22 21:57:13;;;;;;;91.45;13.48;;;;;;;22.77;35.11;101558.97;20831034;28;20472;-62
2022/12/22 22:07:17;;;;;;;81.80;13.50;;;;;;;22.79;34.88;101555.88;20840533;28;20048;-61
2022/12/22 22:17:19;;;;;;;63.00;10.65;;;;;;;22.75;34.71;101513.75;20841157;28;20072;-62
2022/12/22 22:27:20;;;;;;;61.35;10.68;;;;;;;22.69;34.69;101459.06;20840580;28;20057;-62
2022/12/22 22:37:24;;;;;;;55.20;9.10;;;;;;;22.63;34.57;101412.75;20839737;28;20046;-62
2022/12/22 22:47:25;;;;;;;44.13;8.07;;;;;;;22.59;34.80;101392.16;20838958;28;20029;-61
2022/12/22 22:57:32;;;;;;;40.63;7.95;;;;;;;22.53;34.82;101379.31;20838191;28;20083;-62
2022/12/22 23:07:35;;;;;;;34.70;7.35;;;;;;;22.56;34.60;101331.34;20836862;28;20038;-62
2022/12/22 23:17:40;;;;;;;34.78;6.25;;;;;;;22.47;34.54;101255.78;20836288;28;20041;-63
2022/12/22 23:27:42;;;;;;;25.77;5.55;;;;;;;22.53;34.33;101203.59;20836185;28;20111;-61
2022/12/22 23:37:43;;;;;;;19.80;4.90;;;;;;;22.48;34.20;101200.84;20833594;28;20037;-62
2022/12/22 23:47:45;;;;;;;19.10;4.60;;;;;;;22.54;34.34;101208.06;20814113;28;20052;-63
2022/12/22 23:57:49;;;;;;;11.98;3.90;;;;;;;22.49;34.31;101206.13;20829768;28;20033;-62
